Time;durP1;ratioP1;P1;durP2;ratioP2;P2;SDS_P1;SDS_P2;PMS_P1;PMS_P2;Temp;Humidity;BMP_temperature;BMP_pressure;BME280_temperature;BME280_humidity;BME280_pressure;Samples;Min_cycle;Max_cycle;Signal;HPM_P1;HPM_P2
2023/10/06 00:00:42;;;;;;;13.97;7.60;;;13.80;99.90;;;;;;4938277;29;20217;-82
2023/10/06 00:03:12;;;;;;;12.77;6.97;;;13.70;99.90;;;;;;4940198;29;20234;-80
2023/10/06 00:05:40;;;;;;;14.93;6.77;;;13.60;99.90;;;;;;4932460;29;20221;-81
2023/10/06 00:08:10;;;;;;;12.13;7.10;;;13.60;99.90;;;;;;4939803;29;20227;-81
2023/10/06 00:10:44;;;;;;;18.73;7.20;;;13.60;99.90;;;;;;4940272;29;20210;-82
2023/10/06 00:13:18;;;;;;;10.67;7.10;;;13.60;99.90;;;;;;4939549;29;20207;-81
2023/10/06 00:15:49;;;;;;;11.97;6.80;;;13.60;99.90;;;;;;4939375;29;20216;-81
2023/10/06 00:18:18;;;;;;;10.93;6.30;;;13.60;99.90;;;;;;4937589;29;20653;-82
2023/10/06 00:20:48;;;;;;;12.67;5.93;;;13.60;99.90;;;;;;4920237;29;20244;-82
2023/10/06 00:23:21;;;;;;;10.50;5.70;;;13.60;99.90;;;;;;4929220;29;20211;-82
2023/10/06 00:25:51;;;;;;;13.03;6.13;;;13.50;99.90;;;;;;4939137;29;20234;-82
2023/10/06 00:28:21;;;;;;;11.10;5.97;;;13.50;99.90;;;;;;4938673;29;20227;-81
2023/10/06 00:30:55;;;;;;;12.40;6.30;;;13.40;99.90;;;;;;4939623;29;20687;-81
2023/10/06 00:33:23;;;;;;;8.93;5.97;;;13.20;99.90;;;;;;4939288;29;20266;-81
2023/10/06 00:35:50;;;;;;;12.33;6.53;;;13.20;99.90;;;;;;4931739;29;20290;-81
2023/10/06 00:38:17;;;;;;;14.87;6.63;;;13.00;99.90;;;;;;4931158;29;20238;-81
2023/10/06 00:40:51;;;;;;;11.17;6.47;;;13.00;99.90;;;;;;4934536;29;20212;-81
2023/10/06 00:43:39;;;;;;;11.43;6.40;;;13.00;99.90;;;;;;4920520;29;20214;-81
2023/10/06 00:46:07;;;;;;;9.85;5.47;;;12.80;99.90;;;;;;4928070;29;20664;-81
2023/10/06 00:48:37;;;;;;;14.27;5.57;;;12.70;99.90;;;;;;4927465;29;20243;-81
2023/10/06 00:51:05;;;;;;;11.67;6.27;;;12.60;99.90;;;;;;4920291;29;20298;-81
2023/10/06 00:53:32;;;;;;;10.17;7.03;;;12.50;99.90;;;;;;4937334;29;20261;-82
2023/10/06 00:56:04;;;;;;;14.17;6.23;;;12.50;99.90;;;;;;4938875;29;20211;-82
2023/10/06 00:58:34;;;;;;;9.33;6.40;;;12.40;99.90;;;;;;4934415;29;20232;-81
2023/10/06 01:01:06;;;;;;;16.47;6.33;;;12.30;99.90;;;;;;4942484;29;20226;-81
2023/10/06 01:03:38;;;;;;;9.50;5.68;;;12.30;99.90;;;;;;4943819;29;20258;-81
2023/10/06 01:06:11;;;;;;;10.83;6.07;;;12.30;99.90;;;;;;4938784;29;20210;-81
2023/10/06 01:08:38;;;;;;;9.33;6.33;;;12.30;99.90;;;;;;4939960;29;20254;-81
2023/10/06 01:11:11;;;;;;;9.43;6.20;;;12.30;99.90;;;;;;4938260;29;20214;-80
2023/10/06 01:13:46;;;;;;;11.93;6.47;;;12.30;99.90;;;;;;4919626;29;20302;-82
2023/10/06 01:16:19;;;;;;;11.47;6.07;;;12.20;99.90;;;;;;4925522;29;20307;-81
2023/10/06 01:18:52;;;;;;;14.00;8.50;;;12.20;99.90;;;;;;4932161;29;20671;-81
2023/10/06 01:21:28;;;;;;;12.07;7.53;;;12.20;99.90;;;;;;4938649;29;20218;-81
2023/10/06 01:23:58;;;;;;;11.37;6.90;;;12.10;99.90;;;;;;4939195;29;20293;-81
2023/10/06 01:26:25;;;;;;;10.37;6.83;;;12.20;99.90;;;;;;4936174;29;20644;-81
2023/10/06 01:28:53;;;;;;;9.50;5.47;;;12.10;99.90;;;;;;4934165;29;20222;-81
2023/10/06 01:31:20;;;;;;;11.50;6.30;;;12.00;99.90;;;;;;4929769;29;20209;-81
2023/10/06 01:33:47;;;;;;;11.97;6.17;;;12.10;99.90;;;;;;4932378;29;20211;-81
2023/10/06 01:36:15;;;;;;;9.10;5.83;;;12.00;99.90;;;;;;4938068;29;20206;-81
2023/10/06 01:38:43;;;;;;;11.47;5.97;;;12.00;99.90;;;;;;4936824;29;20234;-81
2023/10/06 01:41:12;;;;;;;14.77;7.17;;;11.90;99.90;;;;;;4929455;29;20210;-82
2023/10/06 01:43:38;;;;;;;12.00;6.40;;;12.00;99.90;;;;;;4934397;29;20289;-82
2023/10/06 01:46:07;;;;;;;12.50;7.50;;;12.00;99.90;;;;;;4937742;29;20626;-81
2023/10/06 01:48:36;;;;;;;12.83;6.90;;;11.90;99.90;;;;;;4921768;29;20234;-80
2023/10/06 01:51:08;;;;;;;8.73;6.33;;;11.90;99.90;;;;;;4937642;29;20305;-81
2023/10/06 01:53:40;;;;;;;12.73;6.43;;;11.90;99.90;;;;;;4919020;29;20215;-82
2023/10/06 01:56:07;;;;;;;8.60;5.23;;;11.90;99.90;;;;;;4934191;29;20210;-81
2023/10/06 01:58:36;;;;;;;12.97;6.27;;;12.10;99.90;;;;;;4933519;29;20231;-82
2023/10/06 02:01:05;;;;;;;11.33;5.67;;;12.20;99.90;;;;;;4937234;29;20202;-81
2023/10/06 02:03:38;;;;;;;8.47;4.70;;;12.20;99.90;;;;;;4929977;29;20218;-81
2023/10/06 02:06:12;;;;;;;12.13;5.20;;;12.10;99.90;;;;;;4934211;29;20207;-82
2023/10/06 02:08:40;;;;;;;8.53;4.90;;;12.10;99.90;;;;;;4941824;29;20253;-81
2023/10/06 02:11:09;;;;;;;12.33;5.20;;;12.10;99.90;;;;;;4941506;29;20258;-81
2023/10/06 02:13:38;;;;;;;12.20;5.17;;;12.20;99.90;;;;;;4941979;29;20214;-81
2023/10/06 02:16:06;;;;;;;11.50;5.43;;;11.90;99.90;;;;;;4938399;29;20218;-81
2023/10/06 02:18:36;;;;;;;13.10;7.60;;;11.90;99.90;;;;;;4933611;29;20239;-81
2023/10/06 02:21:10;;;;;;;8.87;4.97;;;11.80;99.90;;;;;;4925850;29;20755;-80
2023/10/06 02:23:38;;;;;;;9.57;5.23;;;11.80;99.90;;;;;;4922053;29;20660;-81
2023/10/06 02:26:08;;;;;;;9.73;5.40;;;11.80;99.90;;;;;;4940435;29;20207;-82
2023/10/06 02:28:40;;;;;;;11.30;6.43;;;11.90;99.90;;;;;;4940940;29;20707;-81
2023/10/06 02:31:08;;;;;;;10.93;5.40;;;11.80;99.90;;;;;;4942068;29;20261;-81
2023/10/06 02:33:39;;;;;;;13.10;6.27;;;11.90;99.90;;;;;;4926527;29;20642;-81
2023/10/06 02:36:15;;;;;;;10.17;5.13;;;11.90;99.90;;;;;;4934188;29;20211;-81
2023/10/06 02:38:46;;;;;;;15.27;6.00;;;11.90;99.90;;;;;;4934457;29;20285;-81
2023/10/06 02:41:18;;;;;;;9.53;5.60;;;11.90;99.90;;;;;;4924985;29;20240;-81
2023/10/06 02:43:47;;;;;;;11.23;5.80;;;12.00;99.90;;;;;;4935514;29;20614;-81
2023/10/06 02:46:15;;;;;;;9.90;5.97;;;11.80;99.90;;;;;;4940985;29;20203;-81
2023/10/06 02:48:49;;;;;;;11.90;6.77;;;11.80;99.90;;;;;;4940753;29;20250;-81
2023/10/06 02:51:30;;;;;;;13.07;5.67;;;11.90;99.90;;;;;;4941330;29;20221;-82
2023/10/06 02:54:13;;;;;;;9.70;5.83;;;11.80;99.90;;;;;;4942176;29;20206;-80
2023/10/06 02:56:40;;;;;;;11.57;6.23;;;11.80;99.90;;;;;;4933644;29;20279;-81
2023/10/06 02:59:20;;;;;;;12.77;5.67;;;11.80;99.90;;;;;;4942835;29;20277;-80
2023/10/06 03:01:51;;;;;;;14.50;6.80;;;11.60;99.90;;;;;;4938891;29;20686;-82
2023/10/06 03:04:21;;;;;;;9.03;5.57;;;11.60;99.90;;;;;;4938519;29;20277;-80
2023/10/06 03:06:53;;;;;;;11.60;5.97;;;11.70;99.90;;;;;;4935906;29;20297;-81
2023/10/06 03:09:20;;;;;;;11.10;5.87;;;11.60;99.90;;;;;;4937501;29;20235;-80
2023/10/06 03:11:49;;;;;;;11.23;5.70;;;11.50;99.90;;;;;;4934991;29;20239;-81
2023/10/06 03:14:24;;;;;;;13.73;6.17;;;11.50;99.90;;;;;;4942216;29;20211;-81
2023/10/06 03:16:52;;;;;;;12.63;5.73;;;11.30;99.90;;;;;;4936089;29;20215;-82
2023/10/06 03:19:24;;;;;;;12.10;5.93;;;11.30;99.90;;;;;;4939075;29;20231;-81
2023/10/06 03:21:55;;;;;;;10.90;5.60;;;11.40;99.90;;;;;;4933269;29;20270;-81
2023/10/06 03:24:31;;;;;;;12.03;5.63;;;11.30;99.90;;;;;;4939632;29;20255;-81
2023/10/06 03:26:58;;;;;;;10.80;6.03;;;11.40;99.90;;;;;;4940596;29;20195;-82
2023/10/06 03:29:43;;;;;;;12.17;6.27;;;11.50;99.90;;;;;;4940562;29;20650;-84
2023/10/06 03:32:14;;;;;;;11.00;6.03;;;11.20;99.90;;;;;;4940695;29;20615;-82
2023/10/06 03:34:43;;;;;;;9.67;5.80;;;11.10;99.90;;;;;;4941272;29;20222;-83
2023/10/06 03:37:15;;;;;;;12.87;5.77;;;11.10;99.90;;;;;;4941546;29;20297;-82
2023/10/06 03:39:50;;;;;;;10.90;5.73;;;11.00;99.90;;;;;;4941724;29;20223;-83
2023/10/06 03:42:20;;;;;;;10.03;5.90;;;11.00;99.90;;;;;;4941179;29;20273;-82
2023/10/06 03:45:05;;;;;;;14.03;5.67;;;10.90;99.90;;;;;;4939805;29;20210;-82
2023/10/06 03:47:31;;;;;;;12.70;6.10;;;10.90;99.90;;;;;;4941455;29;20247;-82
2023/10/06 03:50:00;;;;;;;12.43;6.47;;;10.90;99.90;;;;;;4940548;29;20235;-83
2023/10/06 03:52:27;;;;;;;8.30;5.73;;;10.90;99.90;;;;;;4940254;29;20648;-82
2023/10/06 03:54:58;;;;;;;10.03;5.83;;;10.70;99.90;;;;;;4940835;29;20242;-82
2023/10/06 03:57:25;;;;;;;12.13;5.60;;;10.70;99.90;;;;;;4941705;29;20706;-82
2023/10/06 03:59:53;;;;;;;9.83;6.00;;;10.70;99.90;;;;;;4941302;29;20230;-82
2023/10/06 04:02:20;;;;;;;13.47;5.93;;;10.70;99.90;;;;;;4941100;29;20257;-82
2023/10/06 04:04:49;;;;;;;9.80;5.73;;;10.70;99.90;;;;;;4941069;29;20229;-82
2023/10/06 04:07:19;;;;;;;10.67;5.60;;;10.70;99.90;;;;;;4941180;29;20207;-82
2023/10/06 04:09:49;;;;;;;12.30;5.43;;;10.80;99.90;;;;;;4940766;29;20265;-82
2023/10/06 04:12:16;;;;;;;11.13;5.60;;;10.70;99.90;;;;;;4940885;29;20226;-82
2023/10/06 04:14:43;;;;;;;15.10;5.60;;;10.60;99.90;;;;;;4940697;29;20241;-82
2023/10/06 04:17:12;;;;;;;15.07;6.67;;;10.60;99.90;;;;;;4940704;29;20642;-82
2023/10/06 04:19:39;;;;;;;11.50;5.57;;;10.60;99.90;;;;;;4940567;29;20230;-82
2023/10/06 04:22:07;;;;;;;13.07;6.40;;;10.60;99.90;;;;;;4941384;29;20258;-81
2023/10/06 04:24:34;;;;;;;14.10;5.87;;;10.80;99.90;;;;;;4940908;29;20207;-82
2023/10/06 04:27:01;;;;;;;13.20;5.97;;;10.70;99.90;;;;;;4940053;29;20249;-82
2023/10/06 04:29:34;;;;;;;8.40;5.73;;;10.70;99.90;;;;;;4939453;29;20229;-83
2023/10/06 04:32:01;;;;;;;8.13;5.50;;;10.70;99.90;;;;;;4940188;29;20213;-83
2023/10/06 04:34:33;;;;;;;9.40;5.40;;;10.80;99.90;;;;;;4940574;29;20203;-82
2023/10/06 04:37:00;;;;;;;9.67;5.33;;;10.70;99.90;;;;;;4940358;29;20187;-82
2023/10/06 04:39:27;;;;;;;11.90;5.67;;;10.80;99.90;;;;;;4940571;29;20294;-82
2023/10/06 04:41:55;;;;;;;10.63;5.77;;;10.70;99.90;;;;;;4940184;29;20210;-82
2023/10/06 04:44:22;;;;;;;10.40;5.57;;;10.80;99.90;;;;;;4940207;29;20223;-83
2023/10/06 04:46:50;;;;;;;11.63;5.03;;;10.80;99.90;;;;;;4940037;29;20627;-83
2023/10/06 04:49:17;;;;;;;10.93;5.13;;;10.90;99.90;;;;;;4939801;29;20227;-82
2023/10/06 04:51:45;;;;;;;9.33;4.37;;;11.00;99.90;;;;;;4939914;29;20211;-81
2023/10/06 04:54:13;;;;;;;10.93;5.40;;;11.00;99.90;;;;;;4940161;29;20218;-82
2023/10/06 04:56:40;;;;;;;9.57;4.90;;;11.10;99.90;;;;;;4939822;29;20238;-82
2023/10/06 04:59:11;;;;;;;9.23;3.90;;;11.50;99.90;;;;;;4939489;29;20318;-83
2023/10/06 05:01:38;;;;;;;10.80;4.13;;;11.50;99.90;;;;;;4940185;29;20235;-82
2023/10/06 05:04:08;;;;;;;6.37;3.13;;;11.60;99.90;;;;;;4940062;29;20645;-82
2023/10/06 05:06:35;;;;;;;10.33;4.27;;;11.70;99.90;;;;;;4940427;29;20262;-82
2023/10/06 05:09:06;;;;;;;8.40;3.97;;;11.80;99.90;;;;;;4939858;29;20226;-83
2023/10/06 05:11:32;;;;;;;6.40;3.30;;;11.80;99.90;;;;;;4940052;29;20192;-81
2023/10/06 05:13:59;;;;;;;10.73;3.70;;;12.30;99.90;;;;;;4939349;29;20234;-82
2023/10/06 05:16:27;;;;;;;6.70;3.43;;;11.80;99.90;;;;;;4940850;29;20245;-82
2023/10/06 05:18:55;;;;;;;12.40;5.87;;;11.80;99.90;;;;;;4940649;29;20233;-82
2023/10/06 05:21:21;;;;;;;8.43;4.43;;;11.80;99.90;;;;;;4940023;29;20262;-82
2023/10/06 05:23:48;;;;;;;10.87;4.07;;;11.70;99.90;;;;;;4939110;29;20219;-82
2023/10/06 05:26:20;;;;;;;13.87;4.10;;;11.70;99.90;;;;;;4935475;29;20203;-81
2023/10/06 05:28:47;;;;;;;7.53;3.20;;;11.70;99.90;;;;;;4942058;29;20227;-82
2023/10/06 05:31:14;;;;;;;7.70;3.37;;;11.80;99.90;;;;;;4939732;29;20202;-82
2023/10/06 05:33:41;;;;;;;6.87;3.43;;;11.80;99.90;;;;;;4939453;29;20221;-83
2023/10/06 05:36:11;;;;;;;8.47;3.93;;;11.80;99.90;;;;;;4938078;29;20266;-82
2023/10/06 05:38:38;;;;;;;11.03;3.97;;;11.80;99.90;;;;;;4938811;29;20244;-82
2023/10/06 05:41:11;;;;;;;11.43;4.57;;;11.80;99.90;;;;;;4937824;29;20298;-82
2023/10/06 05:43:39;;;;;;;12.70;4.97;;;11.90;99.90;;;;;;4930471;29;20222;-83
2023/10/06 05:46:06;;;;;;;16.93;6.00;;;11.90;99.90;;;;;;4930745;29;20215;-84
2023/10/06 05:48:34;;;;;;;12.53;6.03;;;11.90;99.90;;;;;;4937779;29;20319;-83
2023/10/06 05:51:04;;;;;;;9.07;4.00;;;11.80;99.90;;;;;;4931445;29;20294;-85
2023/10/06 05:53:38;;;;;;;11.93;4.93;;;11.80;99.90;;;;;;4934493;29;20622;-84
2023/10/06 05:56:07;;;;;;;11.63;4.77;;;12.10;99.90;;;;;;4936163;29;20221;-84
2023/10/06 05:58:34;;;;;;;11.13;5.03;;;11.90;99.90;;;;;;4941115;29;20235;-84
2023/10/06 06:01:06;;;;;;;11.70;5.43;;;12.00;99.90;;;;;;4949042;29;20272;-84
2023/10/06 06:03:33;;;;;;;6.73;3.77;;;12.10;99.90;;;;;;4947505;29;20237;-85
2023/10/06 06:06:04;;;;;;;8.07;3.90;;;12.10;99.90;;;;;;4939013;29;20238;-84
2023/10/06 06:08:31;;;;;;;6.63;3.67;;;12.20;99.90;;;;;;4938516;29;20231;-84
2023/10/06 06:10:59;;;;;;;8.47;3.90;;;12.20;99.90;;;;;;4939844;29;20206;-83
2023/10/06 06:13:26;;;;;;;8.70;3.60;;;12.20;99.90;;;;;;4938778;29;20207;-83
2023/10/06 06:15:54;;;;;;;6.80;3.50;;;12.20;99.90;;;;;;4938820;29;20225;-84
2023/10/06 06:18:25;;;;;;;8.13;4.03;;;12.20;99.90;;;;;;4937661;29;20223;-84
2023/10/06 06:20:52;;;;;;;13.60;4.57;;;12.40;99.90;;;;;;4937507;29;20631;-84
2023/10/06 06:23:20;;;;;;;9.83;4.20;;;12.50;99.90;;;;;;4939128;29;20314;-84
2023/10/06 06:25:47;;;;;;;9.80;4.03;;;12.60;99.90;;;;;;4939731;29;20274;-84
2023/10/06 06:28:14;;;;;;;6.60;3.60;;;12.70;99.90;;;;;;4938362;29;20238;-84
2023/10/06 06:30:41;;;;;;;11.47;3.77;;;12.80;99.90;;;;;;4938459;29;20270;-84
2023/10/06 06:33:12;;;;;;;9.00;3.63;;;13.30;99.90;;;;;;4939734;29;20202;-84
2023/10/06 06:35:42;;;;;;;9.73;4.17;;;13.00;99.90;;;;;;4939699;29;20199;-85
2023/10/06 06:38:12;;;;;;;8.70;3.73;;;13.10;99.90;;;;;;4952729;29;20273;-84
2023/10/06 06:40:39;;;;;;;9.30;4.00;;;13.10;99.90;;;;;;4958994;29;20234;-85
2023/10/06 06:43:09;;;;;;;11.40;4.03;;;13.20;99.90;;;;;;4958219;28;20214;-85
2023/10/06 06:45:39;;;;;;;7.67;3.40;;;13.30;99.90;;;;;;4954423;29;20258;-83
2023/10/06 06:48:10;;;;;;;10.67;4.30;;;13.30;99.90;;;;;;4936925;29;20223;-85
2023/10/06 06:50:37;;;;;;;8.90;3.70;;;13.30;99.90;;;;;;4939599;29;20314;-83
2023/10/06 06:53:05;;;;;;;8.73;3.67;;;13.30;99.90;;;;;;4942259;29;20258;-84
2023/10/06 06:55:32;;;;;;;7.23;3.53;;;13.40;99.90;;;;;;4942010;29;20207;-84
2023/10/06 06:58:05;;;;;;;7.33;3.23;;;13.50;99.90;;;;;;4940649;29;20230;-83
2023/10/06 07:00:35;;;;;;;6.33;3.40;;;13.50;99.90;;;;;;4942287;29;20272;-84
2023/10/06 07:03:02;;;;;;;8.73;3.43;;;13.50;99.90;;;;;;4942934;29;20218;-83
2023/10/06 07:05:30;;;;;;;9.97;3.03;;;13.60;99.90;;;;;;4941938;29;20578;-84
2023/10/06 07:07:59;;;;;;;5.77;2.93;;;13.50;99.90;;;;;;4942104;29;20227;-83
2023/10/06 07:10:29;;;;;;;12.33;3.50;;;13.50;99.90;;;;;;4941208;29;20219;-83
2023/10/06 07:12:59;;;;;;;7.47;3.83;;;13.40;99.90;;;;;;4941189;29;20219;-84
2023/10/06 07:15:29;;;;;;;9.73;3.23;;;13.40;99.90;;;;;;4941375;29;20211;-83
2023/10/06 07:17:57;;;;;;;9.67;3.43;;;13.40;99.90;;;;;;4940608;29;20211;-85
2023/10/06 07:20:27;;;;;;;8.37;3.40;;;13.40;99.90;;;;;;4941460;29;20254;-84
2023/10/06 07:22:55;;;;;;;9.50;3.37;;;13.40;99.90;;;;;;4935273;29;20210;-84
2023/10/06 07:25:24;;;;;;;14.83;4.77;;;13.60;99.90;;;;;;4945830;29;20233;-85
2023/10/06 07:27:55;;;;;;;5.57;3.07;;;13.80;99.90;;;;;;4942289;29;20302;-85
2023/10/06 07:30:23;;;;;;;8.27;3.77;;;14.00;99.90;;;;;;4957123;29;20195;-84
2023/10/06 07:32:51;;;;;;;9.27;3.70;;;14.10;99.90;;;;;;4942174;29;20211;-84
2023/10/06 07:35:19;;;;;;;8.63;3.30;;;14.10;99.90;;;;;;4930275;29;20571;-83
2023/10/06 07:37:48;;;;;;;13.93;3.43;;;14.00;99.90;;;;;;4941843;29;20301;-82
2023/10/06 07:40:18;;;;;;;10.10;3.50;;;14.00;99.90;;;;;;4935698;29;20639;-83
2023/10/06 07:42:46;;;;;;;8.07;3.70;;;14.10;99.90;;;;;;4938350;29;20286;-83
2023/10/06 07:45:15;;;;;;;9.55;3.67;;;14.20;99.90;;;;;;4940326;29;20683;-84
2023/10/06 07:47:43;;;;;;;8.43;3.70;;;14.30;99.90;;;;;;4939946;29;20210;-82
2023/10/06 07:50:12;;;;;;;10.35;3.47;;;14.40;99.90;;;;;;4938626;29;20215;-84
2023/10/06 07:52:40;;;;;;;7.65;3.08;;;14.40;99.90;;;;;;4921700;29;20211;-84
2023/10/06 07:55:09;;;;;;;9.00;3.47;;;14.60;99.90;;;;;;4939808;29;20733;-83
2023/10/06 07:57:41;;;;;;;7.40;3.15;;;14.60;99.90;;;;;;4941269;29;20206;-84
2023/10/06 08:00:09;;;;;;;8.82;3.50;;;14.60;99.90;;;;;;4940964;29;20198;-83
2023/10/06 08:02:39;;;;;;;6.97;3.03;;;14.50;99.90;;;;;;4939834;29;20211;-84
2023/10/06 08:05:11;;;;;;;8.10;3.72;;;14.50;99.90;;;;;;4940450;29;20231;-82
2023/10/06 08:07:38;;;;;;;6.18;3.45;;;14.50;99.90;;;;;;4939875;29;20604;-84
2023/10/06 08:10:06;;;;;;;6.38;3.28;;;14.50;99.90;;;;;;4939552;29;20274;-82
2023/10/06 08:12:33;;;;;;;7.95;3.40;;;14.70;99.90;;;;;;4936616;29;20210;-82
2023/10/06 08:15:00;;;;;;;6.45;3.05;;;14.80;99.90;;;;;;4944243;29;20297;-81
2023/10/06 08:17:29;;;;;;;7.95;3.45;;;14.90;99.90;;;;;;4929680;29;20211;-82
2023/10/06 08:19:57;;;;;;;5.57;3.42;;;15.00;99.90;;;;;;4926140;29;20224;-84
2023/10/06 08:22:26;;;;;;;8.35;3.47;;;15.10;99.90;;;;;;4938631;29;20203;-84
2023/10/06 08:24:53;;;;;;;8.32;3.38;;;15.30;99.90;;;;;;4939754;29;20234;-83
2023/10/06 08:27:23;;;;;;;5.68;2.90;;;15.50;99.90;;;;;;4939261;29;20210;-84
2023/10/06 08:29:52;;;;;;;7.97;3.20;;;15.40;99.90;;;;;;4939408;29;20223;-83
2023/10/06 08:32:18;;;;;;;5.93;3.35;;;15.30;99.90;;;;;;4940395;29;20235;-84
2023/10/06 08:34:46;;;;;;;7.80;3.35;;;15.30;99.90;;;;;;4939548;29;20713;-84
2023/10/06 08:37:15;;;;;;;6.40;2.72;;;15.30;99.90;;;;;;4939964;29;20667;-82
2023/10/06 08:39:44;;;;;;;6.90;2.38;;;15.40;99.90;;;;;;4942463;29;20612;-83
2023/10/06 08:42:12;;;;;;;6.68;3.03;;;15.50;99.90;;;;;;4942181;29;20214;-79
2023/10/06 08:44:39;;;;;;;8.60;4.40;;;15.60;99.90;;;;;;4947870;29;20225;-84
2023/10/06 08:47:10;;;;;;;8.70;2.97;;;15.60;99.90;;;;;;4961081;29;20281;-82
2023/10/06 08:49:39;;;;;;;8.57;3.10;;;15.70;99.90;;;;;;4961499;29;20226;-84
2023/10/06 08:52:08;;;;;;;6.60;3.13;;;16.20;99.90;;;;;;4951659;29;20218;-83
2023/10/06 08:54:38;;;;;;;10.30;3.80;;;16.00;99.90;;;;;;4942113;29;20649;-83
2023/10/06 08:57:05;;;;;;;8.48;3.08;;;16.10;99.90;;;;;;4938861;29;20222;-82
2023/10/06 08:59:32;;;;;;;5.70;3.28;;;16.00;99.90;;;;;;4931316;29;20222;-81
2023/10/06 09:02:01;;;;;;;7.05;3.10;;;16.00;99.90;;;;;;4941964;29;20211;-82
2023/10/06 09:04:35;;;;;;;8.68;3.33;;;16.00;99.90;;;;;;4942103;29;20225;-81
2023/10/06 09:07:17;;;;;;;8.10;3.10;;;15.90;99.90;;;;;;4941489;29;20218;-82
2023/10/06 09:09:47;;;;;;;5.55;2.70;;;15.70;99.90;;;;;;4937498;29;20223;-82
2023/10/06 09:12:24;;;;;;;8.25;2.88;;;15.90;99.90;;;;;;4940097;29;20269;-81
2023/10/06 09:14:54;;;;;;;7.10;2.95;;;15.90;99.90;;;;;;4940632;29;20258;-82
2023/10/06 09:17:31;;;;;;;9.20;3.30;;;15.90;99.90;;;;;;4941411;29;20207;-81
2023/10/06 09:19:59;;;;;;;10.02;3.00;;;15.90;99.90;;;;;;4940496;29;20323;-82
2023/10/06 09:22:29;;;;;;;7.93;3.28;;;16.00;99.90;;;;;;4925200;29;20208;-83
2023/10/06 09:25:04;;;;;;;6.30;2.72;;;16.00;99.90;;;;;;4921413;29;20603;-82
2023/10/06 09:27:32;;;;;;;7.18;3.17;;;16.10;99.90;;;;;;4948007;28;20647;-83
2023/10/06 09:30:00;;;;;;;6.78;2.92;;;16.20;99.90;;;;;;4938311;29;20251;-83
2023/10/06 09:32:27;;;;;;;9.73;3.10;;;16.40;99.90;;;;;;4930822;29;20213;-84
2023/10/06 09:34:57;;;;;;;5.25;2.72;;;16.50;99.90;;;;;;4938574;29;20207;-83
2023/10/06 09:37:24;;;;;;;4.82;2.92;;;16.60;99.90;;;;;;4937804;29;20218;-84
2023/10/06 09:39:58;;;;;;;7.65;3.17;;;16.70;99.90;;;;;;4937984;29;20227;-83
2023/10/06 09:42:30;;;;;;;7.32;2.88;;;16.80;99.90;;;;;;4937981;29;20607;-81
2023/10/06 09:45:06;;;;;;;6.05;3.00;;;16.80;99.90;;;;;;4939052;29;20754;-81
2023/10/06 09:47:36;;;;;;;10.45;3.40;;;16.90;99.90;;;;;;4939252;29;20567;-82
2023/10/06 09:50:03;;;;;;;7.15;2.80;;;17.10;99.90;;;;;;4938799;29;20211;-82
2023/10/06 09:52:33;;;;;;;8.15;3.17;;;17.00;99.90;;;;;;4939133;29;20203;-83
2023/10/06 09:55:04;;;;;;;7.38;3.03;;;17.00;99.90;;;;;;4938921;29;20558;-83
2023/10/06 09:57:33;;;;;;;6.03;3.00;;;17.00;99.90;;;;;;4939379;29;20238;-82
2023/10/06 10:00:01;;;;;;;5.45;2.38;;;16.90;99.90;;;;;;4938663;29;20600;-82
2023/10/06 10:02:32;;;;;;;7.20;2.80;;;17.00;99.90;;;;;;4939121;29;20203;-83
2023/10/06 10:05:01;;;;;;;5.55;2.35;;;16.90;99.90;;;;;;4939671;29;20282;-83
2023/10/06 10:07:29;;;;;;;7.65;2.65;;;17.00;99.90;;;;;;4939895;29;20556;-83
2023/10/06 10:09:57;;;;;;;8.40;3.17;;;16.90;99.90;;;;;;4939164;29;20694;-83
2023/10/06 10:12:37;;;;;;;9.02;2.80;;;16.90;99.90;;;;;;4940046;29;20203;-83
2023/10/06 10:15:21;;;;;;;7.78;2.38;;;17.10;99.90;;;;;;4939575;29;20551;-81
2023/10/06 10:17:55;;;;;;;9.05;2.50;;;17.00;99.90;;;;;;4935402;29;20214;-81
2023/10/06 10:20:25;;;;;;;6.90;2.80;;;17.00;99.90;;;;;;4938207;29;20197;-82
2023/10/06 10:22:55;;;;;;;7.35;3.05;;;17.10;99.90;;;;;;4938569;29;20239;-82
2023/10/06 10:25:24;;;;;;;6.13;3.05;;;17.20;99.90;;;;;;4939840;29;20236;-82
2023/10/06 10:28:16;;;;;;;7.40;3.30;;;17.30;99.90;;;;;;4941609;29;20210;-82
2023/10/06 10:30:57;;;;;;;7.38;3.42;;;17.40;99.90;;;;;;4942754;29;20238;-82
2023/10/06 10:33:25;;;;;;;9.20;3.15;;;17.40;99.90;;;;;;4942214;29;20213;-82
2023/10/06 10:36:22;;;;;;;6.90;2.90;;;17.50;99.90;;;;;;4942175;29;20238;-82
2023/10/06 10:39:01;;;;;;;6.93;2.75;;;17.50;99.90;;;;;;4942509;29;20244;-82
2023/10/06 10:41:34;;;;;;;5.80;2.63;;;17.60;99.90;;;;;;4942718;29;20628;-82
2023/10/06 10:44:05;;;;;;;7.95;2.90;;;17.50;99.90;;;;;;4942547;29;20191;-81
2023/10/06 10:46:33;;;;;;;7.45;3.17;;;17.60;99.90;;;;;;4941929;29;20188;-82
2023/10/06 10:49:01;;;;;;;7.45;2.90;;;17.60;99.90;;;;;;4942455;29;20229;-83
2023/10/06 10:51:33;;;;;;;5.05;2.65;;;17.60;99.90;;;;;;4943271;29;20324;-82
2023/10/06 10:54:00;;;;;;;8.15;3.38;;;17.70;99.90;;;;;;4942369;29;20299;-81
2023/10/06 10:56:35;;;;;;;7.55;2.85;;;17.70;99.90;;;;;;4941862;29;20644;-81
2023/10/06 10:59:03;;;;;;;6.65;2.50;;;17.80;99.90;;;;;;4941842;29;20226;-81
2023/10/06 11:01:32;;;;;;;5.47;2.70;;;17.90;99.90;;;;;;4942459;29;20251;-81
2023/10/06 11:04:29;;;;;;;5.30;2.42;;;17.90;99.90;;;;;;4942374;29;20242;-81
2023/10/06 11:06:58;;;;;;;9.63;2.95;;;18.00;99.90;;;;;;4942688;29;20222;-82
2023/10/06 11:09:29;;;;;;;9.95;2.80;;;18.00;99.90;;;;;;4943396;29;20318;-82
2023/10/06 11:11:56;;;;;;;7.03;2.85;;;18.00;99.90;;;;;;4942041;29;20263;-82
2023/10/06 11:14:26;;;;;;;5.78;2.33;;;18.10;99.90;;;;;;4941619;29;20206;-82
2023/10/06 11:17:01;;;;;;;4.28;2.42;;;18.10;99.90;;;;;;4939944;29;20207;-83
2023/10/06 11:19:29;;;;;;;8.32;2.97;;;18.00;99.90;;;;;;4940693;29;20301;-82
2023/10/06 11:21:57;;;;;;;8.55;3.08;;;18.00;99.90;;;;;;4939641;29;20221;-82
2023/10/06 11:24:27;;;;;;;4.28;2.30;;;17.90;99.90;;;;;;4940343;29;20227;-82
2023/10/06 11:26:54;;;;;;;7.35;2.88;;;17.90;99.90;;;;;;4940982;29;20207;-82
2023/10/06 11:29:32;;;;;;;5.65;2.60;;;17.90;99.90;;;;;;4940853;29;20269;-82
2023/10/06 11:32:01;;;;;;;6.97;2.67;;;18.10;99.90;;;;;;4941010;29;20650;-82
2023/10/06 11:34:28;;;;;;;7.28;3.10;;;18.20;99.90;;;;;;4941133;29;20243;-82
2023/10/06 11:36:56;;;;;;;4.65;2.45;;;18.30;99.90;;;;;;4940851;29;20279;-82
2023/10/06 11:39:24;;;;;;;5.78;2.72;;;18.30;99.90;;;;;;4940978;29;20231;-83
2023/10/06 11:41:53;;;;;;;6.05;2.53;;;18.40;99.90;;;;;;4940850;29;20718;-82
2023/10/06 11:44:20;;;;;;;4.53;2.70;;;18.70;99.90;;;;;;4940882;29;20214;-83
2023/10/06 11:46:52;;;;;;;4.38;2.63;;;18.80;99.90;;;;;;4941283;29;20214;-83
2023/10/06 11:49:20;;;;;;;6.47;2.83;;;18.90;99.90;;;;;;4942309;29;20318;-83
2023/10/06 11:51:49;;;;;;;7.82;2.42;;;18.90;99.90;;;;;;4941189;29;20252;-80
2023/10/06 11:54:15;;;;;;;4.55;2.47;;;19.00;99.90;;;;;;4939040;29;20207;-81
2023/10/06 11:56:49;;;;;;;3.83;2.40;;;19.30;99.90;;;;;;4940101;29;20299;-83
2023/10/06 11:59:20;;;;;;;5.53;2.67;;;19.30;99.90;;;;;;4941177;29;20235;-82
2023/10/06 12:01:47;;;;;;;6.10;2.63;;;19.10;99.90;;;;;;4941137;29;20654;-82
2023/10/06 12:04:30;;;;;;;4.95;2.10;;;18.90;99.90;;;;;;4940928;29;20211;-83
2023/10/06 12:06:57;;;;;;;4.50;2.22;;;18.60;99.90;;;;;;4939821;29;20207;-83
2023/10/06 12:09:25;;;;;;;5.47;2.40;;;18.90;99.90;;;;;;4940754;29;20226;-83
2023/10/06 12:11:54;;;;;;;6.68;2.70;;;19.20;99.90;;;;;;4939913;29;20223;-83
2023/10/06 12:14:21;;;;;;;7.28;2.80;;;19.60;99.90;;;;;;4940718;29;20203;-81
2023/10/06 12:16:48;;;;;;;6.80;2.35;;;20.00;99.90;;;;;;4939640;29;20222;-81
2023/10/06 12:19:15;;;;;;;8.68;2.50;;;19.80;99.90;;;;;;4939154;29;20231;-81
2023/10/06 12:21:44;;;;;;;4.53;2.47;;;19.70;99.90;;;;;;4938878;29;20277;-80
2023/10/06 12:24:11;;;;;;;4.35;2.70;;;19.90;99.90;;;;;;4938125;29;20209;-82
2023/10/06 12:26:39;;;;;;;5.38;2.65;;;19.80;99.90;;;;;;4938263;29;20651;-82
2023/10/06 12:29:06;;;;;;;6.03;2.47;;;19.80;99.90;;;;;;4938544;29;20231;-82
2023/10/06 12:31:33;;;;;;;6.43;2.25;;;19.50;99.90;;;;;;4938498;29;20237;-81
2023/10/06 12:34:03;;;;;;;6.20;2.20;;;19.30;99.90;;;;;;4938283;29;20262;-82
2023/10/06 12:36:31;;;;;;;5.07;2.42;;;19.20;99.90;;;;;;4938892;29;20647;-81
2023/10/06 12:39:00;;;;;;;5.78;2.00;;;19.00;99.90;;;;;;4937814;29;20317;-82
2023/10/06 12:41:27;;;;;;;4.82;2.35;;;18.90;99.90;;;;;;4936149;29;20671;-81
2023/10/06 12:43:54;;;;;;;4.05;2.40;;;18.90;99.90;;;;;;4937542;29;20592;-80
2023/10/06 12:46:22;;;;;;;3.47;2.33;;;19.00;99.90;;;;;;4937882;29;20598;-81
2023/10/06 12:48:49;;;;;;;7.03;3.28;;;19.10;99.90;;;;;;4937232;29;20235;-80
2023/10/06 12:51:15;;;;;;;4.18;2.05;;;19.00;99.90;;;;;;4937441;29;20293;-80
2023/10/06 12:53:43;;;;;;;5.53;2.50;;;18.90;99.90;;;;;;4937484;29;20232;-81
2023/10/06 12:56:11;;;;;;;6.45;2.70;;;19.00;99.90;;;;;;4937441;29;20258;-81